Flight Track Log - Related Links

Times and Time Zones

All times are in EST time to prevent confusion due to time zone crossing. See the UAL304 flight status page for this flight to view local times or setup timezone preferences in your user account.

Time Position Orientation Groundspeed Altitude Reporting Facility
EST Latitude Longitude Course Direction KTS MPH feet Rate Location/Type
Fri 06:40:10 PM 37.6500 -122.3167 63° Northeast 194 223 2,600  Level Northern TRACON
Fri 06:41:05 PM 37.7000 -122.2667 38° Northeast 245 282 5,100 3,183 Climbing Northern TRACON
Fri 06:42:00 PM 37.8107 -121.9235 61° Northeast  Level FlightAware
Fri 06:42:05 PM 37.7333 -122.1833 63° Northeast 263 303 8,700  Level Northern TRACON
Fri 06:43:00 PM 37.8798 -121.7737 58° Northeast  Level FlightAware
Fri 06:43:05 PM 37.7667 -122.1000 63° Northeast 308 354 11,000  Level Northern TRACON
Fri 06:44:00 PM 37.9456 -121.6214 61° Northeast  Level FlightAware
Fri 06:44:05 PM 37.8167 -121.9833 61° Northeast 355 409 13,400  Level Northern TRACON
Fri 06:45:00 PM 38.0122 -121.4695 63° Northeast  Level FlightAware
Fri 06:45:23 PM 37.8792 -121.8417 61° Northeast 372 428 17,100  Level Oakland Center
Fri 06:46:24 PM 37.9278 -121.7261 62° Northeast 388 447 19,200 2,098 Climbing Oakland Center
Fri 06:47:26 PM 37.9786 -121.6014 63° Northeast 397 457 21,400 1,854 Climbing Oakland Center
Fri 06:48:27 PM 38.0350 -121.4650 62° Northeast 433 498 23,000 1,574 Climbing Oakland Center
Fri 06:49:28 PM 38.0919 -121.3211 63° Northeast 455 524 24,600 1,721 Climbing Oakland Center
Fri 06:50:29 PM 38.1642 -121.1439 63° Northeast 472 543 26,500 1,659 Climbing Oakland Center
Fri 06:51:31 PM 38.2147 -120.9833 68° East 500 575 28,000 1,415 Climbing Oakland Center
Fri 06:52:32 PM 38.2406 -120.8028 80° East 522 601 29,400 1,180 Climbing Oakland Center
Fri 06:53:33 PM 38.2656 -120.6178 80° East 531 611 30,400 927 Climbing Oakland Center
Fri 06:54:35 PM 38.2906 -120.4275 80° East 546 628 31,300 1,220 Climbing Oakland Center
Fri 06:55:36 PM 38.3175 -120.2369 80° East 548 631 32,900 976 Climbing Oakland Center
Fri 06:56:38 PM 38.3458 -120.0450 79° East 553 636 33,300 1,073 Climbing Oakland Center
Fri 06:57:39 PM 38.3719 -119.8506 80° East 555 639 35,100 836 Climbing Oakland Center
Fri 06:58:40 PM 38.3986 -119.6344 81° East 520 598 35,000 -49 Descending Oakland Center
Fri 06:59:42 PM 38.4197 -119.4692 81° East 510 587 35,000  Level Oakland Center
Fri 07:00:43 PM 38.4431 -119.2903 80° East 513 590 35,000  Level Oakland Center
Fri 07:01:44 PM 38.4653 -119.1114 81° East 514 592 35,000  Level Oakland Center
Fri 07:02:46 PM 38.4883 -118.9306 81° East 518 596 35,000  Level Oakland Center
Fri 07:03:47 PM 38.5158 -118.7172 81° East 514 592 35,000  Level Oakland Center
Fri 07:04:48 PM 38.5372 -118.5431 81° East 505 581 35,000  Level Oakland Center
Fri 07:05:50 PM 38.5581 -118.3664 81° East 505 581 35,000  Level Oakland Center
Fri 07:06:51 PM 38.5781 -118.1917 82° East 502 578 35,000  Level Oakland Center
Fri 07:07:52 PM 38.6006 -118.0094 81° East 501 577 35,000  Level Oakland Center
Fri 07:08:54 PM 38.6208 -117.8317 82° East 503 579 35,000  Level Oakland Center
Fri 07:09:55 PM 38.6414 -117.6528 82° East 505 581 35,000  Level Oakland Center
Fri 07:10:56 PM 38.6606 -117.4753 82° East 502 578 35,000  Level Oakland Center
Fri 07:11:58 PM 38.6797 -117.2978 82° East 500 575 35,000  Level Oakland Center
Fri 07:12:59 PM 38.7094 -117.1239 78° East 497 572 35,000  Level Oakland Center
Fri 07:13:33 PM 38.7253 -117.0194 79° East 496 571 35,000  Level Salt Center
Fri 07:14:34 PM 38.7544 -116.8469 78° East 494 568 35,000  Level Salt Center
Fri 07:15:36 PM 38.7842 -116.6731 78° East 497 572 35,000  Level Salt Center
Fri 07:16:37 PM 38.8119 -116.5008 78° East 493 567 35,000  Level Salt Center
Fri 07:17:38 PM 38.8397 -116.3258 78° East 497 572 35,000  Level Salt Center
Fri 07:18:40 PM 38.8692 -116.1492 78° East 503 579 35,000  Level Salt Center
Fri 07:19:41 PM 38.9028 -115.9375 78° East 503 579 35,000  Level Salt Center
Fri 07:20:43 PM 38.9311 -115.7608 78° East 505 581 35,000  Level Salt Center
Fri 07:21:44 PM 38.9594 -115.5828 78° East 507 583 35,000  Level Salt Center
Fri 07:22:46 PM 38.9869 -115.4056 79° East 506 582 35,000  Level Salt Center
Fri 07:23:47 PM 39.0169 -115.2242 78° East 514 592 35,000  Level Salt Center
Fri 07:24:48 PM 39.0439 -115.0458 79° East 511 588 35,000  Level Salt Center
Fri 07:25:50 PM 39.0703 -114.8681 79° East 508 585 35,000  Level Salt Center
Fri 07:26:51 PM 39.0972 -114.6908 79° East 506 582 35,000  Level Salt Center
Fri 07:27:53 PM 39.1231 -114.5133 79° East 505 581 35,000  Level Salt Center
Fri 07:28:54 PM 39.1481 -114.3372 80° East 502 578 35,000  Level Salt Center
Fri 07:29:56 PM 39.1781 -114.1275 79° East 498 573 35,000  Level Salt Center
Fri 07:30:57 PM 39.2039 -113.9511 79° East 499 574 35,000  Level Salt Center
Fri 07:31:59 PM 39.2281 -113.7744 80° East 501 577 35,000  Level Salt Center
Fri 07:33:00 PM 39.2528 -113.5983 80° East 500 575 35,000  Level Salt Center
Fri 07:34:02 PM 39.2764 -113.4200 80° East 503 579 35,000  Level Salt Center
Fri 07:35:03 PM 39.3003 -113.2419 80° East 504 580 35,000  Level Salt Center
Fri 07:36:05 PM 39.3300 -113.0650 78° East 504 580 35,000  Level Salt Center
Fri 07:37:06 PM 39.3603 -112.8875 78° East 506 582 35,000  Level Salt Center
Fri 07:38:08 PM 39.3939 -112.6747 78° East 506 582 35,000  Level Salt Center
Fri 07:39:10 PM 39.4236 -112.4972 78° East 508 585 35,000  Level Salt Center
Fri 07:40:11 PM 39.4514 -112.3197 78° East 508 585 35,000  Level Salt Center
Fri 07:41:13 PM 39.4800 -112.1436 78° East 504 580 35,000  Level Salt Center
Fri 07:43:16 PM 39.5347 -111.7900 79° East 504 580 35,000  Level Salt Center
Fri 07:44:17 PM 39.5619 -111.6122 79° East 505 581 35,000  Level Salt Center
Fri 07:45:19 PM 39.5956 -111.4014 78° East 502 578 35,000  Level Salt Center
Fri 07:46:21 PM 39.6206 -111.2394 79° East 501 577 35,000  Level Salt Center
Fri 07:47:22 PM 39.6506 -111.0417 79° East 500 575 35,000  Level Salt Center
Fri 07:48:24 PM 39.6753 -110.8703 79° East 504 580 35,000  Level Salt Center
Fri 07:49:25 PM 39.6992 -110.6997 80° East 504 580 35,000  Level Salt Center
Fri 07:50:27 PM 39.7289 -110.4989 79° East 506 582 35,000  Level Salt Center
Fri 07:51:29 PM 39.7542 -110.3264 79° East 507 583 35,000  Level Salt Center
Fri 07:52:30 PM 39.7811 -110.1258 80° East 506 582 35,000  Level Salt Center
Fri 07:53:32 PM 39.8053 -109.9536 80° East 507 583 35,000  Level Salt Center
Fri 07:54:34 PM 39.8342 -109.7514 79° East 509 586 35,000  Level Salt Center
Fri 07:55:35 PM 39.8578 -109.5794 80° East 506 582 35,000  Level Salt Center
Fri 07:56:37 PM 39.8808 -109.4058 80° East 506 582 35,000  Level Salt Center
Fri 07:57:39 PM 39.9075 -109.2022 80° East 509 586 35,000  Level Salt Center
Fri 07:58:40 PM 39.9300 -109.0272 80° East 510 587 35,000  Level Salt Center
Fri 07:59:42 PM 39.9567 -108.8231 80° East 508 585 35,000  Level Salt Center
Fri 08:00:44 PM 39.9789 -108.6478 81° East 507 583 35,000  Level Salt Center
Fri 08:01:46 PM 40.0011 -108.4728 81° East 508 585 35,000  Level Salt Center
Fri 08:02:47 PM 40.0264 -108.2686 81° East 509 586 35,000  Level Salt Center
Fri 08:03:49 PM 40.0478 -108.0928 81° East 511 588 35,000  Level Salt Center
Fri 08:04:51 PM 40.0756 -107.8886 80° East 511 588 35,000  Level Salt Center
Fri 08:06:11 PM 40.1289 -107.6578 73° East 518 596 35,000  Level Denver Center
Fri 08:07:12 PM 40.1692 -107.4850 73° East 518 596 35,000  Level Denver Center
Fri 08:08:14 PM 40.2150 -107.2828 73° East 519 597 35,000  Level Denver Center
Fri 08:09:16 PM 40.2553 -107.1086 73° East 522 601 35,000  Level Denver Center
Fri 08:10:18 PM 40.2858 -106.9650 74° East 517 595 35,000  Level Denver Center
Fri 08:11:20 PM 40.3417 -106.7206 73° East 520 598 35,000  Level Denver Center
Fri 08:12:22 PM 40.3836 -106.5389 73° East 519 597 35,000  Level Denver Center
Fri 08:13:24 PM 40.4208 -106.3581 75° East 515 593 35,000  Level Denver Center
Fri 08:14:26 PM 40.4589 -106.1844 74° East 516 594 35,000  Level Denver Center
Fri 08:15:28 PM 40.5008 -105.9842 75° East 514 592 35,000  Level Denver Center
Fri 08:16:30 PM 40.5397 -105.8022 74° East 517 595 35,000  Level Denver Center
Fri 08:17:32 PM 40.5783 -105.6219 74° East 515 593 35,000  Level Denver Center
Fri 08:18:34 PM 40.6156 -105.4397 75° East 515 593 35,000  Level Denver Center
Fri 08:19:36 PM 40.6528 -105.2592 75° East 513 590 35,000  Level Denver Center
Fri 08:20:38 PM 40.6986 -105.0408 74° East 513 590 35,000  Level Denver Center
Fri 08:21:40 PM 40.7347 -104.8583 75° East 514 592 35,000  Level Denver Center
Fri 08:22:42 PM 40.7781 -104.6825 72° East 507 583 35,000  Level Denver Center
Fri 08:23:44 PM 40.8761 -104.5531 45° Northeast 499 574 35,000  Level Denver Center
Fri 08:24:46 PM 40.9819 -104.4350 40° Northeast 500 575 35,000  Level Denver Center
Fri 08:25:48 PM 41.0658 -104.2528 59° Northeast 508 585 35,000  Level Denver Center
Fri 08:26:50 PM 41.1364 -104.0994 59° Northeast 510 587 35,000  Level Denver Center
Fri 08:27:52 PM 41.2072 -103.9142 63° Northeast 506 582 35,000  Level Denver Center
Fri 08:28:54 PM 41.2419 -103.7369 75° East 518 596 35,000  Level Denver Center
Fri 08:29:56 PM 41.2803 -103.5319 76° East 514 592 35,000  Level Denver Center
Fri 08:30:58 PM 41.3125 -103.3556 76° East 515 593 35,000  Level Denver Center
Fri 08:32:00 PM 41.3522 -103.1497 76° East 516 594 35,000  Level Denver Center
Fri 08:33:02 PM 41.3831 -102.9750 77° East 512 589 35,000  Level Denver Center
Fri 08:34:04 PM 41.4203 -102.7675 76° East 515 593 35,000  Level Denver Center
Fri 08:35:05 PM 41.4517 -102.5897 77° East 515 593 35,000  Level Denver Center
Fri 08:36:07 PM 41.4844 -102.4106 76° East 518 596 35,000  Level Denver Center
Fri 08:37:09 PM 41.5214 -102.2025 77° East 517 595 35,000  Level Denver Center
Fri 08:38:11 PM 41.5547 -102.0208 76° East 523 602 35,000  Level Denver Center
Fri 08:39:13 PM 41.5906 -101.8117 77° East 519 597 35,000  Level Denver Center
Fri 08:40:15 PM 41.6203 -101.6314 78° East 519 597 35,000  Level Denver Center
Fri 08:41:17 PM 41.6556 -101.4203 77° East 520 598 35,000  Level Denver Center
Fri 08:42:19 PM 41.6847 -101.2406 78° East 517 595 35,000  Level Denver Center
Fri 08:43:21 PM 41.7144 -101.0583 78° East 521 600 35,000  Level Denver Center
Fri 08:44:23 PM 41.7497 -100.8458 77° East 521 600 35,000  Level Denver Center
Fri 08:45:25 PM 41.7789 -100.6628 78° East 523 602 35,000  Level Denver Center
Fri 08:46:27 PM 41.8125 -100.4481 78° East 524 603 35,000  Level Denver Center
Fri 08:47:29 PM 41.8414 -100.2644 78° East 524 603 35,000  Level Denver Center
Fri 08:48:31 PM 41.8744 -100.0503 78° East 524 603 35,000  Level Denver Center
Fri 08:49:33 PM 41.9036 -99.8678 78° East 523 602 35,000  Level Denver Center
Fri 08:50:35 PM 41.9336 -99.6692 78° East 521 600 35,000  Level Denver Center
Fri 08:51:37 PM 41.9619 -99.4775 79° East 520 598 35,000  Level Denver Center
Fri 08:52:51 PM 41.9967 -99.2492 78° East 518 596 35,000  Level Denver Center
Fri 08:53:53 PM 42.0242 -99.0569 79° East 520 598 35,000  Level Denver Center
Fri 08:54:55 PM 42.0519 -98.8642 79° East 523 602 35,000  Level Denver Center
Fri 08:55:57 PM 42.0853 -98.6308 79° East 524 603 35,000  Level Denver Center
Fri 08:56:59 PM 42.1122 -98.4356 79° East 527 606 35,000  Level Denver Center
Fri 08:58:06 PM 42.1394 -98.2425 79° East 526 605 35,000  Level Minneapolis Center
Fri 08:59:08 PM 42.1658 -98.0486 80° East 526 605 35,000  Level Minneapolis Center
Fri 09:00:10 PM 42.1931 -97.8531 79° East 528 608 35,000  Level Minneapolis Center
Fri 09:01:12 PM 42.2197 -97.6442 80° East 527 606 35,000  Level Minneapolis Center
Fri 09:02:14 PM 42.2453 -97.4475 80° East 529 609 35,000  Level Minneapolis Center
Fri 09:03:16 PM 42.2758 -97.2117 80° East 531 611 35,000  Level Minneapolis Center
Fri 09:04:18 PM 42.3003 -97.0136 80° East 533 613 35,000  Level Minneapolis Center
Fri 09:05:20 PM 42.3258 -96.8167 80° East 532 612 35,000  Level Minneapolis Center
Fri 09:06:22 PM 42.3500 -96.6194 81° East 532 612 35,000  Level Minneapolis Center
Fri 09:08:26 PM 42.3986 -96.2264 80° East 528 608 35,000  Level Minneapolis Center
Fri 09:09:29 PM 42.4219 -96.0289 81° East 529 609 35,000  Level Minneapolis Center
Fri 09:10:31 PM 42.4494 -95.7914 81° East 529 609 35,000  Level Minneapolis Center
Fri 09:11:33 PM 42.4711 -95.5900 82° East 535 616 35,000  Level Minneapolis Center
Fri 09:12:35 PM 42.4919 -95.3892 82° East 538 619 35,000  Level Minneapolis Center
Fri 09:13:37 PM 42.5156 -95.1906 81° East 534 615 35,000  Level Minneapolis Center
Fri 09:14:39 PM 42.5369 -94.9908 82° East 534 615 35,000  Level Minneapolis Center
Fri 09:15:41 PM 42.5586 -94.7900 82° East 537 618 35,000  Level Minneapolis Center
Fri 09:16:43 PM 42.5797 -94.5808 82° East 538 619 35,000  Level Minneapolis Center
Fri 09:17:45 PM 42.5989 -94.3803 83° East 539 620 35,000  Level Minneapolis Center
Fri 09:18:47 PM 42.6108 -94.1389 86° East 536 617 35,000  Level Minneapolis Center
Fri 09:19:49 PM 42.6111 -93.9389 90° East 534 615 35,000  Level Minneapolis Center
Fri 09:20:51 PM 42.6144 -93.7361 89° East 538 619 35,000  Level Minneapolis Center
Fri 09:21:53 PM 42.6150 -93.5300 90° East 545 627 35,000  Level Minneapolis Center
Fri 09:22:55 PM 42.6161 -93.3264 90° East 545 627 35,000  Level Minneapolis Center
Fri 09:23:57 PM 42.6172 -93.1242 90° East 542 624 35,000  Level Minneapolis Center
Fri 09:24:32 PM 42.6161 -93.0003 91° East 544 626 35,000 250 Level Chicago Center
Fri 09:25:33 PM 42.6153 -92.7978 90° East 540 621 35,400 829 Climbing Chicago Center
Fri 09:26:35 PM 42.6133 -92.5492 91° East 552 635 36,700 1,073 Climbing Chicago Center
Fri 09:27:36 PM 42.6119 -92.3397 90° East 562 647 37,600 878 Climbing Chicago Center
Fri 09:28:38 PM 42.6100 -92.1278 91° East 570 656 38,500 683 Climbing Chicago Center
Fri 09:29:39 PM 42.6089 -91.9181 90° East 566 651 39,000 244 Climbing Chicago Center
Fri 09:30:41 PM 42.6075 -91.7114 90° East 562 647 39,000  Level Chicago Center
Fri 09:31:42 PM 42.6044 -91.4658 91° East 562 647 39,000  Level Chicago Center
Fri 09:32:44 PM 42.6006 -91.2564 91° East 566 651 39,000  Level Chicago Center
Fri 09:33:45 PM 42.5964 -91.0450 91° East 568 654 39,000  Level Chicago Center
Fri 09:34:47 PM 42.5922 -90.8314 91° East 572 658 39,000  Level Chicago Center
Fri 09:35:48 PM 42.5878 -90.6197 92° East 568 654 39,000  Level Chicago Center
Fri 09:36:50 PM 42.5828 -90.4089 92° East 563 648 39,000  Level Chicago Center
Fri 09:37:51 PM 42.5769 -90.1578 92° East 561 646 39,000  Level Chicago Center
Fri 09:38:53 PM 42.5725 -89.9481 92° East 560 644 39,000  Level Chicago Center
Fri 09:39:54 PM 42.5669 -89.7558 92° East 555 639 39,000  Level Chicago Center
Fri 09:40:56 PM 42.5594 -89.5475 93° East 556 640 39,000  Level Chicago Center
Fri 09:41:57 PM 42.5503 -89.2967 93° East 558 642 39,000  Level Chicago Center
Fri 09:42:59 PM 42.5431 -89.0897 93° East 555 639 39,000  Level Chicago Center
Fri 09:44:00 PM 42.5358 -88.8811 93° East 557 641 39,000  Level Chicago Center
Fri 09:45:02 PM 42.5272 -88.6728 93° East 558 642 39,000  Level Chicago Center
Fri 09:46:03 PM 42.5197 -88.4658 93° East 554 638 39,000  Level Chicago Center
Fri 09:47:04 PM 42.5117 -88.2578 93° East 556 640 39,000  Level Chicago Center
Fri 09:48:06 PM 42.5022 -88.0075 93° East 558 642 39,000  Level Chicago Center
Fri 09:49:07 PM 42.5006 -87.7986 91° East 557 641 39,000  Level Chicago Center
Fri 09:50:08 PM 42.5017 -87.5892 90° East 559 643 39,000  Level Chicago Center
Fri 09:51:10 PM 42.5011 -87.3706 90° East 561 646 39,000  Level Chicago Center
Fri 09:52:11 PM 42.4986 -87.1586 91° East 563 648 39,000  Level Chicago Center
Fri 09:53:12 PM 42.4972 -86.9492 90° East 561 646 39,000  Level Chicago Center
Fri 09:54:14 PM 42.4958 -86.7378 90° East 564 649 39,000  Level Chicago Center
Fri 09:55:15 PM 42.4925 -86.5267 91° East 562 647 39,000  Level Chicago Center
Fri 09:56:16 PM 42.4897 -86.3156 91° East 566 651 39,000  Level Chicago Center
Fri 09:57:18 PM 42.4867 -86.1033 91° East 569 655 39,000  Level Chicago Center
Fri 09:58:19 PM 42.4822 -85.8492 91° East 569 655 39,000  Level Chicago Center
Fri 09:59:20 PM 42.4778 -85.6328 92° East 577 664 39,000  Level Chicago Center
Fri 10:00:21 PM 42.4736 -85.4144 91° East 583 671 39,000  Level Chicago Center
Fri 10:01:23 PM 42.4678 -85.1944 92° East 587 676 39,000  Level Chicago Center
Fri 10:02:24 PM 42.4617 -84.9778 92° East 583 671 39,000  Level Chicago Center
Fri 10:03:25 PM 42.4558 -84.7594 92° East 582 670 39,000  Level Chicago Center
Fri 10:04:26 PM 42.4506 -84.5408 92° East 584 672 39,000  Level Chicago Center
Fri 10:05:27 PM 42.4422 -84.2892 92° East 582 670 39,000  Level Cleveland Center
Fri 10:06:29 PM 42.4339 -84.0706 93° East 582 670 39,000  Level Cleveland Center
Fri 10:07:30 PM 42.4256 -83.8511 93° East 582 670 39,000  Level Cleveland Center
Fri 10:08:31 PM 42.4169 -83.6322 93° East 582 670 39,000  Level Cleveland Center
Fri 10:09:32 PM 42.4078 -83.4342 94° East 581 669 39,000  Level Cleveland Center
Fri 10:10:33 PM 42.3994 -83.1875 93° East 581 669 39,000  Level Cleveland Center
Fri 10:11:35 PM 42.3911 -82.9681 93° East 581 669 39,000  Level Cleveland Center
Fri 10:12:36 PM 42.3811 -82.7517 94° East 580 667 39,000  Level Cleveland Center
Fri 10:13:37 PM 42.3725 -82.5336 93° East 580 667 39,000  Level Cleveland Center
Fri 10:14:38 PM 42.3631 -82.3169 93° East 579 666 39,000  Level Cleveland Center
Fri 10:15:39 PM 42.3447 -82.0797 96° East 579 666 39,000  Level Cleveland Center
Fri 10:16:40 PM 42.3217 -81.8611 98° East 579 666 39,000  Level Cleveland Center
Fri 10:17:42 PM 42.2997 -81.6417 98° East 580 667 39,000  Level Cleveland Center
Fri 10:18:43 PM 42.2772 -81.4225 98° East 581 669 39,000  Level Cleveland Center
Fri 10:19:44 PM 42.2558 -81.2042 97° East 581 669 39,000  Level Cleveland Center
Fri 10:20:45 PM 42.2331 -80.9872 98° East 580 667 39,000  Level Cleveland Center
Fri 10:21:47 PM 42.2058 -80.7722 100° East 579 666 39,000  Level Cleveland Center
Fri 10:22:48 PM 42.1775 -80.5558 100° East 578 665 39,000  Level Cleveland Center
Fri 10:23:49 PM 42.1486 -80.3406 100° East 579 666 39,000  Level Cleveland Center
Fri 10:24:50 PM 42.1211 -80.1256 100° East 576 663 39,000  Level Cleveland Center
Fri 10:25:51 PM 42.0889 -79.9000 101° East 582 670 39,000  Level Cleveland Center
Fri 10:26:53 PM 42.0594 -79.6861 100° East 582 670 39,000  Level Cleveland Center
Fri 10:27:54 PM 42.0294 -79.4739 101° East 582 670 39,000  Level Cleveland Center
Fri 10:28:55 PM 41.9994 -79.2586 101° East 583 671 39,000  Level Cleveland Center
Fri 10:29:56 PM 41.9692 -79.0450 101° East 583 671 39,000  Level Cleveland Center
Fri 10:30:57 PM 41.9386 -78.8311 101° East 585 673 39,000  Level Cleveland Center
Fri 10:31:58 PM 41.9061 -78.6175 101° East 585 673 39,000  Level Cleveland Center
Fri 10:32:59 PM 41.8739 -78.4025 101° East 585 673 39,000  Level Cleveland Center
Fri 10:34:00 PM 41.8344 -78.1442 101° East 586 674 39,000  Level Cleveland Center
Fri 10:35:01 PM 41.8014 -77.9297 102° East 586 674 39,000  Level Cleveland Center
Fri 10:35:55 PM 41.7711 -77.7381 102° East 587 676 39,000  Level New Center
Fri 10:36:55 PM 41.7375 -77.5258 102° East 587 676 39,000  Level New Center
Fri 10:37:55 PM 41.7017 -77.3083 102° East 592 681 39,000  Level New Center
Fri 10:38:55 PM 41.6611 -77.0961 104° East 592 681 39,000  Level New Center
Fri 10:39:55 PM 41.6072 -76.8939 110° East 592 681 39,000  Level New Center
Fri 10:40:55 PM 41.5633 -76.7319 110° East 587 676 39,000 -150 Level New Center
Fri 10:41:55 PM 41.5014 -76.5103 110° East 576 663 38,700 -900 Descending New Center
Fri 10:42:55 PM 41.4408 -76.2947 110° East 570 656 37,200 -1,950 Descending New Center
Fri 10:43:55 PM 41.3894 -76.0969 109° East 570 656 34,800 -2,500 Descending New Center
Fri 10:44:55 PM 41.3350 -75.9131 111° Southeast 555 639 32,200 -2,950 Descending New Center
Fri 10:45:55 PM 41.2808 -75.7211 111° Southeast 549 632 28,900 -2,950 Descending New Center
Fri 10:46:55 PM 41.2217 -75.5375 113° Southeast 549 632 26,300 -2,650 Descending New Center
Fri 10:47:55 PM 41.1619 -75.3597 114° Southeast 531 611 23,600 -1,650 Descending New Center
Fri 10:48:55 PM 41.1019 -75.1903 115° Southeast 519 597 23,000 -300 Descending New Center
Fri 10:49:55 PM 41.0436 -75.0189 114° Southeast 507 583 23,000  Level New Center
Fri 10:50:55 PM 40.9917 -74.8367 111° Southeast 507 583 23,000 -150 Level New Center
Fri 10:51:55 PM 40.9708 -74.6514 98° East 512 589 22,700 -1,250 Descending New Center
Fri 10:52:55 PM 40.9497 -74.4608 98° East 517 595 20,500 -1,805 Descending New Center
Fri 10:53:58 PM 40.9333 -74.2833 97° East 484 557 19,000 -769 Descending New TRACON
Fri 10:54:52 PM 40.8667 -74.1500 123° Southeast 439 505 19,000 -500 Level New TRACON
Fri 10:55:58 PM 40.7667 -74.0500 143° Southeast 410 472 18,000 -818 Descending New TRACON
Fri 10:57:04 PM 40.6833 -73.9333 133° Southeast 368 423 17,200 -1,048 Descending New TRACON
Fri 10:58:04 PM 40.6000 -73.8500 143° Southeast 396 456 15,800 -1,500 Descending New TRACON
Fri 10:59:04 PM 40.5167 -73.8000 155° Southeast 323 372 14,200 -1,571 Descending New TRACON
Fri 11:00:10 PM 40.4333 -73.7500 155° Southeast 308 354 12,500 -1,571 Descending New TRACON
Fri 11:01:10 PM 40.3500 -73.7000 155° Southeast 303 349 10,900 -1,600 Descending New TRACON
Fri 11:01:55 PM 40.3336 -73.6136 104° East 293 337 9,700 -1,371 Descending New Center
Fri 11:02:55 PM 40.3936 -73.5506 39° Northeast 179 206 8,500 -1,550 Descending New Center
Fri 11:03:55 PM 40.4733 -73.5211 16° North 242 278 6,600 -2,150 Descending New Center
Fri 11:04:55 PM 40.5400 -73.5211 360° North 247 284 4,200 -1,650 Descending New Center
Fri 11:05:55 PM 40.5678 -73.5878 299° West 197 227 3,300 -1,000 Descending New Center
Fri 11:06:55 PM 40.5953 -73.6544 299° West 192 221 2,200 -1,021 Descending New Center
Fri 11:08:16 PM 40.6167 -73.7167 294° West 125 144 900 -800 Descending New TRACON
Fri 11:09:10 PM 40.6333 -73.7500 303° West 118 136 400 -556 Descending New TRACON

Login

Don't have an account? Register now (free) for customized features, flight alerts, and more!